sensor_id;sensor_type;location;lat;lon;timestamp;temperature;humidity
65836;SHT30;52595;51.608;7.216;2022-07-01T00:00:25;14.30;98.37
65836;SHT30;52595;51.608;7.216;2022-07-01T00:02:51;14.29;97.57
65836;SHT30;52595;51.608;7.216;2022-07-01T00:05:16;14.29;97.79
65836;SHT30;52595;51.608;7.216;2022-07-01T00:07:42;14.29;97.46
65836;SHT30;52595;51.608;7.216;2022-07-01T00:10:07;14.32;97.28
65836;SHT30;52595;51.608;7.216;2022-07-01T00:12:33;14.32;97.37
65836;SHT30;52595;51.608;7.216;2022-07-01T00:14:58;14.30;97.32
65836;SHT30;52595;51.608;7.216;2022-07-01T00:17:24;14.32;97.57
65836;SHT30;52595;51.608;7.216;2022-07-01T00:19:49;14.33;96.98
65836;SHT30;52595;51.608;7.216;2022-07-01T00:22:15;14.33;96.97
65836;SHT30;52595;51.608;7.216;2022-07-01T00:24:41;14.34;96.66
65836;SHT30;52595;51.608;7.216;2022-07-01T00:27:07;14.34;96.77
65836;SHT30;52595;51.608;7.216;2022-07-01T00:29:32;14.32;96.80
65836;SHT30;52595;51.608;7.216;2022-07-01T00:32:01;14.28;97.10
65836;SHT30;52595;51.608;7.216;2022-07-01T00:34:26;14.29;96.86
65836;SHT30;52595;51.608;7.216;2022-07-01T00:36:52;14.29;96.48
65836;SHT30;52595;51.608;7.216;2022-07-01T00:39:17;14.30;96.45
65836;SHT30;52595;51.608;7.216;2022-07-01T00:41:42;14.32;96.35
65836;SHT30;52595;51.608;7.216;2022-07-01T00:44:20;14.33;96.33
65836;SHT30;52595;51.608;7.216;2022-07-01T00:46:47;14.34;96.46
65836;SHT30;52595;51.608;7.216;2022-07-01T00:49:14;14.37;96.59
65836;SHT30;52595;51.608;7.216;2022-07-01T00:51:40;14.34;96.42
65836;SHT30;52595;51.608;7.216;2022-07-01T00:54:06;14.32;96.81
65836;SHT30;52595;51.608;7.216;2022-07-01T00:56:31;14.33;96.74
65836;SHT30;52595;51.608;7.216;2022-07-01T00:58:56;14.29;96.73
65836;SHT30;52595;51.608;7.216;2022-07-01T01:01:22;14.30;96.82
65836;SHT30;52595;51.608;7.216;2022-07-01T01:03:48;14.30;96.65
65836;SHT30;52595;51.608;7.216;2022-07-01T01:06:14;14.28;96.59
65836;SHT30;52595;51.608;7.216;2022-07-01T01:08:40;14.32;96.36
65836;SHT30;52595;51.608;7.216;2022-07-01T01:11:06;14.34;96.79
65836;SHT30;52595;51.608;7.216;2022-07-01T01:13:31;14.36;96.92
65836;SHT30;52595;51.608;7.216;2022-07-01T01:15:57;14.33;96.49
65836;SHT30;52595;51.608;7.216;2022-07-01T01:18:22;14.34;96.22
65836;SHT30;52595;51.608;7.216;2022-07-01T01:20:47;14.33;96.04
65836;SHT30;52595;51.608;7.216;2022-07-01T01:23:13;14.32;95.70
65836;SHT30;52595;51.608;7.216;2022-07-01T01:25:38;14.33;96.13
65836;SHT30;52595;51.608;7.216;2022-07-01T01:28:04;14.34;96.22
65836;SHT30;52595;51.608;7.216;2022-07-01T01:30:30;14.32;95.57
65836;SHT30;52595;51.608;7.216;2022-07-01T01:32:55;14.33;95.52
65836;SHT30;52595;51.608;7.216;2022-07-01T01:35:21;14.29;95.14
65836;SHT30;52595;51.608;7.216;2022-07-01T01:37:47;14.29;95.56
65836;SHT30;52595;51.608;7.216;2022-07-01T01:40:14;14.30;95.28
65836;SHT30;52595;51.608;7.216;2022-07-01T01:42:40;14.33;95.52
65836;SHT30;52595;51.608;7.216;2022-07-01T01:45:06;14.32;95.20
65836;SHT30;52595;51.608;7.216;2022-07-01T01:47:32;14.29;95.45
65836;SHT30;52595;51.608;7.216;2022-07-01T01:49:58;14.33;95.76
65836;SHT30;52595;51.608;7.216;2022-07-01T01:52:23;14.32;96.24
65836;SHT30;52595;51.608;7.216;2022-07-01T01:54:49;14.33;96.42
65836;SHT30;52595;51.608;7.216;2022-07-01T01:57:15;14.36;95.73
65836;SHT30;52595;51.608;7.216;2022-07-01T01:59:41;14.33;95.76
65836;SHT30;52595;51.608;7.216;2022-07-01T02:02:06;14.39;96.05
65836;SHT30;52595;51.608;7.216;2022-07-01T02:04:32;14.36;96.02
65836;SHT30;52595;51.608;7.216;2022-07-01T02:06:58;14.36;96.28
65836;SHT30;52595;51.608;7.216;2022-07-01T02:09:23;14.40;96.15
65836;SHT30;52595;51.608;7.216;2022-07-01T02:11:52;14.39;95.98
65836;SHT30;52595;51.608;7.216;2022-07-01T02:14:19;14.39;95.74
65836;SHT30;52595;51.608;7.216;2022-07-01T02:16:44;14.40;96.11
65836;SHT30;52595;51.608;7.216;2022-07-01T02:19:09;14.39;95.77
65836;SHT30;52595;51.608;7.216;2022-07-01T02:21:35;14.36;95.49
65836;SHT30;52595;51.608;7.216;2022-07-01T02:24:00;14.37;95.73
65836;SHT30;52595;51.608;7.216;2022-07-01T02:26:25;14.34;95.59
65836;SHT30;52595;51.608;7.216;2022-07-01T02:28:51;14.36;96.22
65836;SHT30;52595;51.608;7.216;2022-07-01T02:31:16;14.36;96.24
65836;SHT30;52595;51.608;7.216;2022-07-01T02:33:42;14.33;95.70
65836;SHT30;52595;51.608;7.216;2022-07-01T02:36:07;14.33;96.22
65836;SHT30;52595;51.608;7.216;2022-07-01T02:38:32;14.32;95.24
65836;SHT30;52595;51.608;7.216;2022-07-01T02:40:58;14.29;95.11
65836;SHT30;52595;51.608;7.216;2022-07-01T02:43:24;14.30;95.38
65836;SHT30;52595;51.608;7.216;2022-07-01T02:45:49;14.33;95.21
65836;SHT30;52595;51.608;7.216;2022-07-01T02:48:14;14.30;95.29
65836;SHT30;52595;51.608;7.216;2022-07-01T02:50:40;14.25;95.30
65836;SHT30;52595;51.608;7.216;2022-07-01T02:53:05;14.26;95.66
65836;SHT30;52595;51.608;7.216;2022-07-01T02:55:31;14.23;95.44
65836;SHT30;52595;51.608;7.216;2022-07-01T02:57:56;14.15;95.45
65836;SHT30;52595;51.608;7.216;2022-07-01T03:00:23;14.15;95.30
65836;SHT30;52595;51.608;7.216;2022-07-01T03:02:49;14.15;95.20
65836;SHT30;52595;51.608;7.216;2022-07-01T03:05:15;14.08;95.08
65836;SHT30;52595;51.608;7.216;2022-07-01T03:07:41;14.09;94.99
65836;SHT30;52595;51.608;7.216;2022-07-01T03:10:07;14.08;94.38
65836;SHT30;52595;51.608;7.216;2022-07-01T03:12:33;14.12;95.27
65836;SHT30;52595;51.608;7.216;2022-07-01T03:15:08;14.06;94.87
65836;SHT30;52595;51.608;7.216;2022-07-01T03:17:36;14.06;94.29
65836;SHT30;52595;51.608;7.216;2022-07-01T03:20:03;14.09;94.85
65836;SHT30;52595;51.608;7.216;2022-07-01T03:22:30;14.05;94.82
65836;SHT30;52595;51.608;7.216;2022-07-01T03:24:57;14.01;94.27
65836;SHT30;52595;51.608;7.216;2022-07-01T03:27:22;14.04;94.92
65836;SHT30;52595;51.608;7.216;2022-07-01T03:29:48;14.06;94.59
65836;SHT30;52595;51.608;7.216;2022-07-01T03:32:14;14.08;94.29
65836;SHT30;52595;51.608;7.216;2022-07-01T03:34:49;14.09;94.10
65836;SHT30;52595;51.608;7.216;2022-07-01T03:37:15;14.08;94.75
65836;SHT30;52595;51.608;7.216;2022-07-01T03:39:42;14.10;94.42
65836;SHT30;52595;51.608;7.216;2022-07-01T03:42:08;14.12;94.03
65836;SHT30;52595;51.608;7.216;2022-07-01T03:44:34;14.08;93.74
65836;SHT30;52595;51.608;7.216;2022-07-01T03:47:00;14.02;93.12
65836;SHT30;52595;51.608;7.216;2022-07-01T03:49:26;14.02;92.71
65836;SHT30;52595;51.608;7.216;2022-07-01T03:51:52;13.99;93.04
65836;SHT30;52595;51.608;7.216;2022-07-01T03:54:18;13.97;93.15
65836;SHT30;52595;51.608;7.216;2022-07-01T03:56:56;14.02;93.79
65836;SHT30;52595;51.608;7.216;2022-07-01T03:59:22;14.02;93.42
65836;SHT30;52595;51.608;7.216;2022-07-01T04:01:47;14.02;93.05
65836;SHT30;52595;51.608;7.216;2022-07-01T04:04:12;14.02;92.93
65836;SHT30;52595;51.608;7.216;2022-07-01T04:06:38;14.04;93.46
65836;SHT30;52595;51.608;7.216;2022-07-01T04:09:04;14.04;92.71
65836;SHT30;52595;51.608;7.216;2022-07-01T04:11:29;14.02;92.99
65836;SHT30;52595;51.608;7.216;2022-07-01T04:13:55;14.04;92.59
65836;SHT30;52595;51.608;7.216;2022-07-01T04:16:21;14.05;92.88
65836;SHT30;52595;51.608;7.216;2022-07-01T04:18:46;14.10;93.26
65836;SHT30;52595;51.608;7.216;2022-07-01T04:21:12;14.12;92.69
65836;SHT30;52595;51.608;7.216;2022-07-01T04:23:56;14.16;92.11
65836;SHT30;52595;51.608;7.216;2022-07-01T04:26:25;14.08;92.07
65836;SHT30;52595;51.608;7.216;2022-07-01T04:28:54;14.06;92.37
65836;SHT30;52595;51.608;7.216;2022-07-01T04:31:20;14.06;92.34
65836;SHT30;52595;51.608;7.216;2022-07-01T04:33:48;14.13;92.43
65836;SHT30;52595;51.608;7.216;2022-07-01T04:36:14;14.12;92.34
65836;SHT30;52595;51.608;7.216;2022-07-01T04:38:40;14.12;92.29
65836;SHT30;52595;51.608;7.216;2022-07-01T04:41:05;14.16;91.84
65836;SHT30;52595;51.608;7.216;2022-07-01T04:43:50;14.16;92.28
65836;SHT30;52595;51.608;7.216;2022-07-01T04:46:15;14.18;92.62
65836;SHT30;52595;51.608;7.216;2022-07-01T04:48:41;14.16;92.59
65836;SHT30;52595;51.608;7.216;2022-07-01T04:51:07;14.13;92.41
65836;SHT30;52595;51.608;7.216;2022-07-01T04:53:32;14.20;92.70
65836;SHT30;52595;51.608;7.216;2022-07-01T04:55:58;14.23;92.48
65836;SHT30;52595;51.608;7.216;2022-07-01T04:58:23;14.26;92.61
65836;SHT30;52595;51.608;7.216;2022-07-01T05:00:48;14.28;92.51
65836;SHT30;52595;51.608;7.216;2022-07-01T05:03:14;14.28;92.51
65836;SHT30;52595;51.608;7.216;2022-07-01T05:05:40;14.29;92.31
65836;SHT30;52595;51.608;7.216;2022-07-01T05:08:05;14.30;92.61
65836;SHT30;52595;51.608;7.216;2022-07-01T05:10:30;14.33;92.42
65836;SHT30;52595;51.608;7.216;2022-07-01T05:12:56;14.34;92.97
65836;SHT30;52595;51.608;7.216;2022-07-01T05:15:21;14.33;92.88
65836;SHT30;52595;51.608;7.216;2022-07-01T05:17:47;14.34;92.77
65836;SHT30;52595;51.608;7.216;2022-07-01T05:20:31;14.43;92.63
65836;SHT30;52595;51.608;7.216;2022-07-01T05:23:15;14.39;92.82
65836;SHT30;52595;51.608;7.216;2022-07-01T05:25:40;14.37;92.97
65836;SHT30;52595;51.608;7.216;2022-07-01T05:28:05;14.44;92.94
65836;SHT30;52595;51.608;7.216;2022-07-01T05:30:31;14.55;92.72
65836;SHT30;52595;51.608;7.216;2022-07-01T05:32:56;14.62;92.60
65836;SHT30;52595;51.608;7.216;2022-07-01T05:35:22;14.56;92.43
65836;SHT30;52595;51.608;7.216;2022-07-01T05:37:47;14.57;92.24
65836;SHT30;52595;51.608;7.216;2022-07-01T05:40:12;14.66;91.57
65836;SHT30;52595;51.608;7.216;2022-07-01T05:42:38;14.63;91.77
65836;SHT30;52595;51.608;7.216;2022-07-01T05:45:04;14.59;91.71
65836;SHT30;52595;51.608;7.216;2022-07-01T05:47:29;14.67;91.61
65836;SHT30;52595;51.608;7.216;2022-07-01T05:49:54;14.74;91.62
65836;SHT30;52595;51.608;7.216;2022-07-01T05:52:20;14.77;91.02
65836;SHT30;52595;51.608;7.216;2022-07-01T05:54:45;14.73;91.33
65836;SHT30;52595;51.608;7.216;2022-07-01T05:57:11;14.73;91.47
65836;SHT30;52595;51.608;7.216;2022-07-01T05:59:36;14.73;90.88
65836;SHT30;52595;51.608;7.216;2022-07-01T06:02:02;14.79;90.91
65836;SHT30;52595;51.608;7.216;2022-07-01T06:04:28;14.79;91.10
65836;SHT30;52595;51.608;7.216;2022-07-01T06:06:53;14.87;90.43
65836;SHT30;52595;51.608;7.216;2022-07-01T06:09:18;14.84;90.59
65836;SHT30;52595;51.608;7.216;2022-07-01T06:11:44;14.95;90.29
65836;SHT30;52595;51.608;7.216;2022-07-01T06:14:10;15.01;90.51
65836;SHT30;52595;51.608;7.216;2022-07-01T06:16:35;15.07;89.89
65836;SHT30;52595;51.608;7.216;2022-07-01T06:19:01;15.10;89.19
65836;SHT30;52595;51.608;7.216;2022-07-01T06:21:26;15.05;89.69
65836;SHT30;52595;51.608;7.216;2022-07-01T06:23:51;14.98;89.07
65836;SHT30;52595;51.608;7.216;2022-07-01T06:26:17;15.04;89.25
65836;SHT30;52595;51.608;7.216;2022-07-01T06:28:42;15.11;88.84
65836;SHT30;52595;51.608;7.216;2022-07-01T06:31:08;15.08;88.69
65836;SHT30;52595;51.608;7.216;2022-07-01T06:33:33;15.21;88.43
65836;SHT30;52595;51.608;7.216;2022-07-01T06:35:59;15.41;88.10
65836;SHT30;52595;51.608;7.216;2022-07-01T06:38:24;15.55;87.42
65836;SHT30;52595;51.608;7.216;2022-07-01T06:40:50;15.57;86.82
65836;SHT30;52595;51.608;7.216;2022-07-01T06:43:34;15.49;86.80
65836;SHT30;52595;51.608;7.216;2022-07-01T06:46:00;15.65;86.80
65836;SHT30;52595;51.608;7.216;2022-07-01T06:48:26;15.83;86.26
65836;SHT30;52595;51.608;7.216;2022-07-01T06:50:51;15.83;85.69
65836;SHT30;52595;51.608;7.216;2022-07-01T06:53:17;15.78;86.32
65836;SHT30;52595;51.608;7.216;2022-07-01T06:55:42;15.86;85.30
65836;SHT30;52595;51.608;7.216;2022-07-01T06:58:07;15.99;84.45
65836;SHT30;52595;51.608;7.216;2022-07-01T07:00:35;16.33;84.12
65836;SHT30;52595;51.608;7.216;2022-07-01T07:03:01;16.56;83.53
65836;SHT30;52595;51.608;7.216;2022-07-01T07:05:26;16.64;81.90
65836;SHT30;52595;51.608;7.216;2022-07-01T07:07:51;16.29;83.06
65836;SHT30;52595;51.608;7.216;2022-07-01T07:10:17;16.42;82.01
65836;SHT30;52595;51.608;7.216;2022-07-01T07:12:42;16.37;82.26
65836;SHT30;52595;51.608;7.216;2022-07-01T07:15:08;16.40;81.65
65836;SHT30;52595;51.608;7.216;2022-07-01T07:17:33;16.29;82.22
65836;SHT30;52595;51.608;7.216;2022-07-01T07:19:59;16.39;82.63
65836;SHT30;52595;51.608;7.216;2022-07-01T07:22:24;16.32;82.44
65836;SHT30;52595;51.608;7.216;2022-07-01T07:24:50;16.42;82.62
65836;SHT30;52595;51.608;7.216;2022-07-01T07:27:15;16.68;82.08
65836;SHT30;52595;51.608;7.216;2022-07-01T07:29:41;16.53;82.41
65836;SHT30;52595;51.608;7.216;2022-07-01T07:32:06;16.52;81.53
65836;SHT30;52595;51.608;7.216;2022-07-01T07:34:32;16.52;81.79
65836;SHT30;52595;51.608;7.216;2022-07-01T07:36:59;16.65;81.99
65836;SHT30;52595;51.608;7.216;2022-07-01T07:39:25;16.56;81.31
65836;SHT30;52595;51.608;7.216;2022-07-01T07:41:51;16.50;80.75
65836;SHT30;52595;51.608;7.216;2022-07-01T07:44:16;16.71;79.76
65836;SHT30;52595;51.608;7.216;2022-07-01T07:46:41;16.83;79.22
65836;SHT30;52595;51.608;7.216;2022-07-01T07:49:07;16.81;79.03
65836;SHT30;52595;51.608;7.216;2022-07-01T07:51:33;17.15;78.66
65836;SHT30;52595;51.608;7.216;2022-07-01T07:53:58;17.35;78.10
65836;SHT30;52595;51.608;7.216;2022-07-01T07:56:25;17.46;76.18
65836;SHT30;52595;51.608;7.216;2022-07-01T07:58:51;17.73;76.50
65836;SHT30;52595;51.608;7.216;2022-07-01T08:01:16;17.40;76.75
65836;SHT30;52595;51.608;7.216;2022-07-01T08:03:41;17.39;77.08
65836;SHT30;52595;51.608;7.216;2022-07-01T08:06:07;17.50;76.36
65836;SHT30;52595;51.608;7.216;2022-07-01T08:08:32;17.34;76.36
65836;SHT30;52595;51.608;7.216;2022-07-01T08:10:59;17.29;76.55
65836;SHT30;52595;51.608;7.216;2022-07-01T08:13:24;17.28;74.85
65836;SHT30;52595;51.608;7.216;2022-07-01T08:15:49;17.36;75.22
65836;SHT30;52595;51.608;7.216;2022-07-01T08:18:15;17.56;75.00
65836;SHT30;52595;51.608;7.216;2022-07-01T08:20:40;17.38;75.59
65836;SHT30;52595;51.608;7.216;2022-07-01T08:23:06;17.38;74.25
65836;SHT30;52595;51.608;7.216;2022-07-01T08:25:31;17.36;74.75
65836;SHT30;52595;51.608;7.216;2022-07-01T08:27:56;17.14;73.72
65836;SHT30;52595;51.608;7.216;2022-07-01T08:30:22;17.05;75.09
65836;SHT30;52595;51.608;7.216;2022-07-01T08:32:47;17.21;74.91
65836;SHT30;52595;51.608;7.216;2022-07-01T08:35:13;17.40;74.68
65836;SHT30;52595;51.608;7.216;2022-07-01T08:37:38;17.38;74.10
65836;SHT30;52595;51.608;7.216;2022-07-01T08:40:04;17.27;75.11
65836;SHT30;52595;51.608;7.216;2022-07-01T08:42:30;17.45;75.34
65836;SHT30;52595;51.608;7.216;2022-07-01T08:44:55;17.17;74.39
65836;SHT30;52595;51.608;7.216;2022-07-01T08:47:20;17.05;74.93
65836;SHT30;52595;51.608;7.216;2022-07-01T08:49:46;17.03;74.55
65836;SHT30;52595;51.608;7.216;2022-07-01T08:52:11;17.21;75.09
65836;SHT30;52595;51.608;7.216;2022-07-01T08:54:37;17.08;74.59
65836;SHT30;52595;51.608;7.216;2022-07-01T08:57:04;17.00;73.28
65836;SHT30;52595;51.608;7.216;2022-07-01T08:59:30;16.98;74.33
65836;SHT30;52595;51.608;7.216;2022-07-01T09:01:58;17.15;74.12
65836;SHT30;52595;51.608;7.216;2022-07-01T09:04:24;17.62;73.50
65836;SHT30;52595;51.608;7.216;2022-07-01T09:06:50;17.87;73.47
65836;SHT30;52595;51.608;7.216;2022-07-01T09:09:20;17.56;72.81
65836;SHT30;52595;51.608;7.216;2022-07-01T09:11:53;17.80;73.21
65836;SHT30;52595;51.608;7.216;2022-07-01T09:16:54;18.63;69.76
65836;SHT30;52595;51.608;7.216;2022-07-01T09:19:32;18.18;70.52
65836;SHT30;52595;51.608;7.216;2022-07-01T09:21:59;18.60;70.16
65836;SHT30;52595;51.608;7.216;2022-07-01T09:24:32;18.60;69.19
65836;SHT30;52595;51.608;7.216;2022-07-01T09:27:04;18.57;68.97
65836;SHT30;52595;51.608;7.216;2022-07-01T09:29:36;18.29;69.29
65836;SHT30;52595;51.608;7.216;2022-07-01T09:32:04;17.93;69.99
65836;SHT30;52595;51.608;7.216;2022-07-01T09:37:00;17.53;71.65
65836;SHT30;52595;51.608;7.216;2022-07-01T09:39:26;17.72;71.57
65836;SHT30;52595;51.608;7.216;2022-07-01T09:41:56;17.96;70.91
65836;SHT30;52595;51.608;7.216;2022-07-01T09:44:22;18.41;70.26
65836;SHT30;52595;51.608;7.216;2022-07-01T09:46:57;19.18;68.31
65836;SHT30;52595;51.608;7.216;2022-07-01T09:49:23;19.46;67.57
65836;SHT30;52595;51.608;7.216;2022-07-01T09:51:50;19.19;67.75
65836;SHT30;52595;51.608;7.216;2022-07-01T09:54:16;18.91;66.64
65836;SHT30;52595;51.608;7.216;2022-07-01T09:56:42;19.32;67.63
65836;SHT30;52595;51.608;7.216;2022-07-01T09:59:08;19.65;65.56
65836;SHT30;52595;51.608;7.216;2022-07-01T10:01:33;19.94;65.51
65836;SHT30;52595;51.608;7.216;2022-07-01T10:04:00;19.50;66.42
65836;SHT30;52595;51.608;7.216;2022-07-01T10:06:46;18.95;64.85
65836;SHT30;52595;51.608;7.216;2022-07-01T10:12:07;19.80;62.59
65836;SHT30;52595;51.608;7.216;2022-07-01T10:14:38;19.76;60.64
65836;SHT30;52595;51.608;7.216;2022-07-01T10:17:05;19.87;60.76
65836;SHT30;52595;51.608;7.216;2022-07-01T10:19:31;20.00;61.80
65836;SHT30;52595;51.608;7.216;2022-07-01T10:22:28;20.20;59.41
65836;SHT30;52595;51.608;7.216;2022-07-01T10:24:55;20.45;59.36
65836;SHT30;52595;51.608;7.216;2022-07-01T10:27:23;20.17;58.15
65836;SHT30;52595;51.608;7.216;2022-07-01T10:30:13;19.77;59.87
65836;SHT30;52595;51.608;7.216;2022-07-01T10:32:59;20.20;59.47
65836;SHT30;52595;51.608;7.216;2022-07-01T10:35:24;20.84;58.63
65836;SHT30;52595;51.608;7.216;2022-07-01T10:38:00;20.51;58.59
65836;SHT30;52595;51.608;7.216;2022-07-01T10:40:45;20.28;57.74
65836;SHT30;52595;51.608;7.216;2022-07-01T10:43:15;19.91;58.49
65836;SHT30;52595;51.608;7.216;2022-07-01T10:45:45;19.84;58.46
65836;SHT30;52595;51.608;7.216;2022-07-01T10:48:22;20.14;57.21
65836;SHT30;52595;51.608;7.216;2022-07-01T10:50:48;20.23;57.65
65836;SHT30;52595;51.608;7.216;2022-07-01T10:53:14;20.24;58.02
65836;SHT30;52595;51.608;7.216;2022-07-01T10:56:06;20.41;56.43
65836;SHT30;52595;51.608;7.216;2022-07-01T10:58:36;20.33;56.18
65836;SHT30;52595;51.608;7.216;2022-07-01T11:01:03;20.76;55.76
65836;SHT30;52595;51.608;7.216;2022-07-01T11:03:37;20.64;56.38
65836;SHT30;52595;51.608;7.216;2022-07-01T11:06:04;20.99;55.59
65836;SHT30;52595;51.608;7.216;2022-07-01T11:08:30;20.61;54.53
65836;SHT30;52595;51.608;7.216;2022-07-01T11:10:58;20.61;55.30
65836;SHT30;52595;51.608;7.216;2022-07-01T11:13:25;20.45;53.66
65836;SHT30;52595;51.608;7.216;2022-07-01T11:15:51;20.45;53.57
65836;SHT30;52595;51.608;7.216;2022-07-01T11:18:18;21.09;52.23
65836;SHT30;52595;51.608;7.216;2022-07-01T11:20:44;20.35;54.55
65836;SHT30;52595;51.608;7.216;2022-07-01T11:23:10;20.78;54.65
65836;SHT30;52595;51.608;7.216;2022-07-01T11:25:35;21.91;52.44
65836;SHT30;52595;51.608;7.216;2022-07-01T11:28:01;22.48;50.31
65836;SHT30;52595;51.608;7.216;2022-07-01T11:30:27;23.03;49.50
65836;SHT30;52595;51.608;7.216;2022-07-01T11:32:54;23.22;48.66
65836;SHT30;52595;51.608;7.216;2022-07-01T11:35:26;21.86;50.82
65836;SHT30;52595;51.608;7.216;2022-07-01T11:38:14;20.82;50.84
65836;SHT30;52595;51.608;7.216;2022-07-01T11:41:02;21.84;48.67
65836;SHT30;52595;51.608;7.216;2022-07-01T11:43:30;22.52;47.29
65836;SHT30;52595;51.608;7.216;2022-07-01T11:45:58;22.88;47.05
65836;SHT30;52595;51.608;7.216;2022-07-01T11:51:12;22.76;48.10
65836;SHT30;52595;51.608;7.216;2022-07-01T11:53:39;22.61;47.20
65836;SHT30;52595;51.608;7.216;2022-07-01T11:56:05;22.08;48.14
65836;SHT30;52595;51.608;7.216;2022-07-01T11:58:42;22.55;48.00
65836;SHT30;52595;51.608;7.216;2022-07-01T12:01:07;22.95;47.03
65836;SHT30;52595;51.608;7.216;2022-07-01T12:03:33;22.95;46.58
65836;SHT30;52595;51.608;7.216;2022-07-01T12:05:59;22.22;47.92
65836;SHT30;52595;51.608;7.216;2022-07-01T12:08:25;22.91;46.94
65836;SHT30;52595;51.608;7.216;2022-07-01T12:10:50;23.36;45.91
65836;SHT30;52595;51.608;7.216;2022-07-01T12:13:26;22.94;46.29
65836;SHT30;52595;51.608;7.216;2022-07-01T12:15:52;22.89;46.63
65836;SHT30;52595;51.608;7.216;2022-07-01T12:18:18;23.16;46.64
65836;SHT30;52595;51.608;7.216;2022-07-01T12:20:49;23.97;44.84
65836;SHT30;52595;51.608;7.216;2022-07-01T12:23:15;22.84;46.22
65836;SHT30;52595;51.608;7.216;2022-07-01T12:25:46;23.46;45.18
65836;SHT30;52595;51.608;7.216;2022-07-01T12:28:25;24.15;44.21
65836;SHT30;52595;51.608;7.216;2022-07-01T12:31:02;24.08;45.06
65836;SHT30;52595;51.608;7.216;2022-07-01T12:33:27;22.78;48.67
65836;SHT30;52595;51.608;7.216;2022-07-01T12:35:54;22.49;47.81
65836;SHT30;52595;51.608;7.216;2022-07-01T12:38:19;23.26;46.98
65836;SHT30;52595;51.608;7.216;2022-07-01T12:40:44;22.45;47.49
65836;SHT30;52595;51.608;7.216;2022-07-01T12:43:28;23.70;45.61
65836;SHT30;52595;51.608;7.216;2022-07-01T12:45:57;22.51;48.51
65836;SHT30;52595;51.608;7.216;2022-07-01T12:48:23;21.91;49.44
65836;SHT30;52595;51.608;7.216;2022-07-01T12:50:52;21.59;51.01
65836;SHT30;52595;51.608;7.216;2022-07-01T12:53:19;21.63;49.39
65836;SHT30;52595;51.608;7.216;2022-07-01T12:55:50;21.61;50.88
65836;SHT30;52595;51.608;7.216;2022-07-01T12:58:18;21.29;50.70
65836;SHT30;52595;51.608;7.216;2022-07-01T13:00:49;21.09;51.21
65836;SHT30;52595;51.608;7.216;2022-07-01T13:03:19;21.02;51.33
65836;SHT30;52595;51.608;7.216;2022-07-01T13:05:45;21.28;50.85
65836;SHT30;52595;51.608;7.216;2022-07-01T13:08:10;23.13;45.54
65836;SHT30;52595;51.608;7.216;2022-07-01T13:10:37;24.25;44.82
65836;SHT30;52595;51.608;7.216;2022-07-01T13:13:03;25.40;42.65
65836;SHT30;52595;51.608;7.216;2022-07-01T13:15:29;23.93;44.56
65836;SHT30;52595;51.608;7.216;2022-07-01T13:17:55;23.13;45.69
65836;SHT30;52595;51.608;7.216;2022-07-01T13:20:20;21.96;47.59
65836;SHT30;52595;51.608;7.216;2022-07-01T13:22:46;21.67;48.24
65836;SHT30;52595;51.608;7.216;2022-07-01T13:25:12;21.87;47.63
65836;SHT30;52595;51.608;7.216;2022-07-01T13:27:38;23.13;44.72
65836;SHT30;52595;51.608;7.216;2022-07-01T13:30:05;23.91;41.57
65836;SHT30;52595;51.608;7.216;2022-07-01T13:32:31;24.20;41.29
65836;SHT30;52595;51.608;7.216;2022-07-01T13:34:57;24.72;38.27
65836;SHT30;52595;51.608;7.216;2022-07-01T13:37:22;23.70;40.58
65836;SHT30;52595;51.608;7.216;2022-07-01T13:39:48;22.59;43.76
65836;SHT30;52595;51.608;7.216;2022-07-01T13:42:13;23.16;41.48
65836;SHT30;52595;51.608;7.216;2022-07-01T13:44:39;24.03;40.98
65836;SHT30;52595;51.608;7.216;2022-07-01T13:47:04;24.79;41.00
65836;SHT30;52595;51.608;7.216;2022-07-01T13:49:37;24.98;40.56
65836;SHT30;52595;51.608;7.216;2022-07-01T13:52:03;25.88;39.67
65836;SHT30;52595;51.608;7.216;2022-07-01T13:54:29;25.22;41.10
65836;SHT30;52595;51.608;7.216;2022-07-01T13:56:54;26.02;39.41
65836;SHT30;52595;51.608;7.216;2022-07-01T13:59:20;24.51;40.37
65836;SHT30;52595;51.608;7.216;2022-07-01T14:01:46;23.31;42.40
65836;SHT30;52595;51.608;7.216;2022-07-01T14:04:12;22.51;44.31
65836;SHT30;52595;51.608;7.216;2022-07-01T14:06:37;22.55;44.80
65836;SHT30;52595;51.608;7.216;2022-07-01T14:09:03;23.15;43.31
65836;SHT30;52595;51.608;7.216;2022-07-01T14:11:28;22.30;44.80
65836;SHT30;52595;51.608;7.216;2022-07-01T14:13:54;22.47;45.24
65836;SHT30;52595;51.608;7.216;2022-07-01T14:16:19;22.62;44.80
65836;SHT30;52595;51.608;7.216;2022-07-01T14:18:44;22.68;45.16
65836;SHT30;52595;51.608;7.216;2022-07-01T14:21:10;22.30;45.29
65836;SHT30;52595;51.608;7.216;2022-07-01T14:23:35;22.58;45.05
65836;SHT30;52595;51.608;7.216;2022-07-01T14:26:01;22.14;44.75
65836;SHT30;52595;51.608;7.216;2022-07-01T14:28:26;22.81;43.58
65836;SHT30;52595;51.608;7.216;2022-07-01T14:30:52;22.33;43.53
65836;SHT30;52595;51.608;7.216;2022-07-01T14:33:20;22.47;44.99
65836;SHT30;52595;51.608;7.216;2022-07-01T14:35:45;22.47;44.30
65836;SHT30;52595;51.608;7.216;2022-07-01T14:38:11;22.44;44.24
65836;SHT30;52595;51.608;7.216;2022-07-01T14:40:36;22.68;43.37
65836;SHT30;52595;51.608;7.216;2022-07-01T14:43:03;23.40;42.20
65836;SHT30;52595;51.608;7.216;2022-07-01T14:45:28;24.22;40.32
65836;SHT30;52595;51.608;7.216;2022-07-01T14:47:54;25.22;39.88
65836;SHT30;52595;51.608;7.216;2022-07-01T14:50:19;24.56;38.95
65836;SHT30;52595;51.608;7.216;2022-07-01T14:52:45;23.64;40.84
65836;SHT30;52595;51.608;7.216;2022-07-01T14:55:10;22.82;43.16
65836;SHT30;52595;51.608;7.216;2022-07-01T14:57:36;24.20;40.53
65836;SHT30;52595;51.608;7.216;2022-07-01T15:00:06;25.03;39.69
65836;SHT30;52595;51.608;7.216;2022-07-01T15:02:31;26.39;37.11
65836;SHT30;52595;51.608;7.216;2022-07-01T15:04:57;26.14;38.44
65836;SHT30;52595;51.608;7.216;2022-07-01T15:07:22;24.20;40.06
65836;SHT30;52595;51.608;7.216;2022-07-01T15:09:53;25.00;39.39
65836;SHT30;52595;51.608;7.216;2022-07-01T15:12:21;25.26;39.04
65836;SHT30;52595;51.608;7.216;2022-07-01T15:14:47;25.02;40.32
65836;SHT30;52595;51.608;7.216;2022-07-01T15:17:12;23.63;42.16
65836;SHT30;52595;51.608;7.216;2022-07-01T15:19:38;22.98;43.87
65836;SHT30;52595;51.608;7.216;2022-07-01T15:22:04;22.68;44.39
65836;SHT30;52595;51.608;7.216;2022-07-01T15:24:30;22.68;45.16
65836;SHT30;52595;51.608;7.216;2022-07-01T15:26:56;22.95;44.66
65836;SHT30;52595;51.608;7.216;2022-07-01T15:29:21;23.71;43.26
65836;SHT30;52595;51.608;7.216;2022-07-01T15:31:47;24.14;42.20
65836;SHT30;52595;51.608;7.216;2022-07-01T15:34:13;24.65;41.96
65836;SHT30;52595;51.608;7.216;2022-07-01T15:36:38;24.83;40.94
65836;SHT30;52595;51.608;7.216;2022-07-01T15:39:04;23.77;42.44